Time;durP1;ratioP1;P1;durP2;ratioP2;P2;SDS_P1;SDS_P2;PMS_P1;PMS_P2;Temp;Humidity;BMP_temperature;BMP_pressure;BME280_temperature;BME280_humidity;BME280_pressure;Samples;Min_cycle;Max_cycle;Signal;HPM_P1;HPM_P2
2022/05/29 00:01:01;;;;;;;10.48;1.77;;;8.50;79.20;;;;;;5012876;28;20070;-77
2022/05/29 00:03:26;;;;;;;8.15;1.77;;;8.50;79.60;;;;;;5017022;28;20481;-78
2022/05/29 00:05:52;;;;;;;6.35;1.38;;;8.60;81.30;;;;;;5012701;28;20034;-77
2022/05/29 00:08:26;;;;;;;3.88;1.50;;;8.70;77.50;;;;;;5001470;28;20072;-78
2022/05/29 00:10:51;;;;;;;3.60;1.10;;;8.70;77.60;;;;;;4999904;28;20030;-77
2022/05/29 00:13:17;;;;;;;7.28;2.10;;;8.50;78.90;;;;;;5022069;28;20041;-77
2022/05/29 00:15:42;;;;;;;5.10;1.77;;;8.70;81.40;;;;;;5001146;28;20017;-77
2022/05/29 00:18:08;;;;;;;6.10;1.77;;;8.70;78.10;;;;;;4999839;28;20030;-77
2022/05/29 00:20:34;;;;;;;2.95;1.83;;;8.50;80.10;;;;;;4985590;28;20229;-77
2022/05/29 00:23:00;;;;;;;5.85;1.98;;;;;;;;;;4988264;28;20040;-77
2022/05/29 00:25:25;;;;;;;8.13;2.53;;;8.60;84.80;;;;;;5020789;28;20120;-77
2022/05/29 00:27:51;;;;;;;9.75;4.68;;;8.70;81.40;;;;;;4987410;28;20099;-77
2022/05/29 00:30:16;;;;;;;6.13;2.10;;;8.70;82.80;;;;;;4999410;28;20025;-77
2022/05/29 00:32:42;;;;;;;9.45;2.53;;;8.60;81.40;;;;;;5018205;28;20033;-77
2022/05/29 00:35:08;;;;;;;7.22;2.42;;;8.50;83.10;;;;;;5006273;28;20515;-78
2022/05/29 00:37:35;;;;;;;6.50;3.28;;;8.40;81.70;;;;;;5016372;28;20060;-77
2022/05/29 00:40:01;;;;;;;12.35;3.55;;;8.50;83.10;;;;;;4981958;28;20088;-77
2022/05/29 00:42:26;;;;;;;5.63;2.63;;;8.40;82.50;;;;;;5001961;28;20504;-77
2022/05/29 00:44:52;;;;;;;10.07;4.20;;;8.40;80.60;;;;;;5016774;28;20034;-77
2022/05/29 00:47:19;;;;;;;5.45;3.80;;;8.50;81.50;;;;;;5018230;28;20030;-77
2022/05/29 00:49:45;;;;;;;8.30;3.40;;;8.50;80.00;;;;;;5014637;28;20045;-77
2022/05/29 00:52:13;;;;;;;4.10;1.67;;;8.60;79.30;;;;;;5002713;28;20040;-78
2022/05/29 00:54:55;;;;;;;5.70;1.77;;;8.60;80.30;;;;;;4999141;28;20045;-77
2022/05/29 00:57:34;;;;;;;4.55;2.17;;;8.70;81.00;;;;;;5004782;28;20108;-77
2022/05/29 01:00:03;;;;;;;4.95;1.88;;;8.60;78.80;;;;;;5005082;28;20527;-77
2022/05/29 01:02:28;;;;;;;7.57;1.70;;;8.60;80.20;;;;;;5016263;28;20033;-77
2022/05/29 01:04:54;;;;;;;9.27;2.38;;;8.60;81.30;;;;;;4983953;28;20049;-77
2022/05/29 01:07:20;;;;;;;4.63;1.60;;;8.40;82.30;;;;;;5001336;28;20378;-77
2022/05/29 01:09:46;;;;;;;3.63;1.40;;;8.30;81.60;;;;;;5016620;28;20088;-77
2022/05/29 01:12:18;;;;;;;8.25;2.05;;;8.50;82.30;;;;;;4982038;28;20068;-77
2022/05/29 01:14:56;;;;;;;3.95;1.55;;;8.20;82.50;;;;;;5020615;28;20338;-77
2022/05/29 01:17:42;;;;;;;3.88;1.42;;;8.20;82.60;;;;;;5012328;28;20679;-77
2022/05/29 01:20:13;;;;;;;6.30;2.30;;;8.50;83.60;;;;;;5017762;28;20029;-77
2022/05/29 01:23:04;;;;;;;5.28;1.60;;;8.50;83.70;;;;;;5016648;28;20512;-77
2022/05/29 01:25:48;;;;;;;7.70;1.90;;;8.30;83.50;;;;;;4998527;28;20044;-77
2022/05/29 01:28:33;;;;;;;7.25;1.98;;;8.10;86.10;;;;;;4997614;28;20029;-77
2022/05/29 01:31:22;;;;;;;9.23;2.25;;;8.10;83.80;;;;;;5012118;28;20079;-77
2022/05/29 01:33:57;;;;;;;9.35;2.05;;;8.00;84.40;;;;;;5004250;28;20496;-77
2022/05/29 01:36:42;;;;;;;6.53;1.80;;;8.10;86.10;;;;;;5003616;28;20036;-77
2022/05/29 01:39:24;;;;;;;8.27;1.77;;;8.20;85.50;;;;;;5004665;28;20026;-77
2022/05/29 01:42:04;;;;;;;5.30;1.83;;;8.10;86.60;;;;;;5011024;28;20029;-77
2022/05/29 01:44:32;;;;;;;2.22;1.23;;;;;;;;;;5003938;28;20112;-77
2022/05/29 01:47:19;;;;;;;5.82;1.50;;;8.10;83.30;;;;;;5013930;28;20124;-77
2022/05/29 01:49:49;;;;;;;7.22;1.63;;;8.00;83.60;;;;;;5015040;28;20029;-77
2022/05/29 01:52:23;;;;;;;4.05;1.60;;;7.80;85.20;;;;;;4995174;28;20095;-77
2022/05/29 01:54:59;;;;;;;4.53;1.95;;;7.80;83.30;;;;;;5013986;28;20034;-77
2022/05/29 01:57:28;;;;;;;5.43;1.85;;;7.70;84.40;;;;;;5012957;28;20062;-77
2022/05/29 01:59:59;;;;;;;4.43;1.70;;;7.60;87.00;;;;;;4998085;28;20042;-77
2022/05/29 02:02:29;;;;;;;3.33;1.55;;;7.50;84.30;;;;;;5001045;28;20500;-77
2022/05/29 02:04:56;;;;;;;2.33;1.58;;;7.30;85.00;;;;;;4998595;28;20037;-77
2022/05/29 02:10:30;;;;;;;5.38;1.88;;;7.40;83.90;;;;;;5013395;28;20147;-77
2022/05/29 02:13:00;;;;;;;4.88;1.58;;;7.40;85.30;;;;;;5010843;28;20501;-76
2022/05/29 02:15:35;;;;;;;7.47;1.88;;;7.70;85.40;;;;;;5000173;28;21063;-77
2022/05/29 02:18:02;;;;;;;4.40;1.70;;;7.70;86.70;;;;;;5000027;28;20121;-77
2022/05/29 02:20:30;;;;;;;1.90;1.20;;;7.60;85.90;;;;;;4998801;28;20095;-77
2022/05/29 02:23:03;;;;;;;4.65;1.55;;;7.60;86.20;;;;;;5010557;28;20029;-77
2022/05/29 02:25:30;;;;;;;6.53;1.55;;;7.40;85.00;;;;;;5015299;28;20030;-77
2022/05/29 02:28:06;;;;;;;3.30;1.40;;;7.40;88.00;;;;;;5010474;28;20037;-76
2022/05/29 02:31:08;;;;;;;6.85;1.55;;;7.50;88.10;;;;;;5013376;28;20056;-77
2022/05/29 02:34:01;;;;;;;8.15;2.40;;;7.30;92.40;;;;;;5012927;28;20040;-77
2022/05/29 02:36:50;;;;;;;3.92;1.60;;;7.10;90.10;;;;;;5013403;28;20033;-77
2022/05/29 02:39:23;;;;;;;4.03;1.90;;;7.30;88.90;;;;;;4989321;28;20445;-76
2022/05/29 02:42:29;;;;;;;5.07;1.73;;;7.50;90.20;;;;;;4997559;28;20099;-77
2022/05/29 02:45:15;;;;;;;3.75;1.35;;;7.40;89.10;;;;;;4972422;28;20468;-76
2022/05/29 02:47:57;;;;;;;5.65;2.17;;;7.20;88.70;;;;;;4996808;28;20037;-77
2022/05/29 02:50:52;;;;;;;6.50;2.40;;;7.00;89.50;;;;;;5011253;28;20042;-77
2022/05/29 02:53:18;;;;;;;4.00;1.85;;;6.90;92.30;;;;;;5011100;28;20068;-76
2022/05/29 02:55:44;;;;;;;3.72;1.92;;;7.00;90.80;;;;;;4997260;28;20030;-77
2022/05/29 02:58:19;;;;;;;3.35;1.25;;;7.20;91.20;;;;;;4998973;28;20037;-76
2022/05/29 03:01:11;;;;;;;4.68;1.65;;;7.10;90.20;;;;;;5012792;28;20029;-76
2022/05/29 03:04:03;;;;;;;4.70;2.05;;;7.10;92.70;;;;;;5013382;28;20929;-76
2022/05/29 03:06:42;;;;;;;4.65;2.72;;;6.90;92.70;;;;;;5007636;28;20084;-76
2022/05/29 03:09:23;;;;;;;3.35;2.45;;;7.10;91.90;;;;;;5010390;28;20037;-77
2022/05/29 03:11:49;;;;;;;4.53;1.65;;;7.10;91.00;;;;;;5008535;28;20022;-77
2022/05/29 03:14:35;;;;;;;7.80;2.55;;;7.00;92.10;;;;;;4999088;28;20220;-76
2022/05/29 03:17:16;;;;;;;5.65;2.40;;;7.00;91.80;;;;;;5011563;28;20058;-76
2022/05/29 03:19:58;;;;;;;4.50;1.45;;;7.20;92.80;;;;;;5011674;28;20447;-77
2022/05/29 03:22:45;;;;;;;8.13;2.88;;;7.40;92.80;;;;;;5012931;28;20030;-76
2022/05/29 03:25:31;;;;;;;9.63;2.92;;;7.10;92.90;;;;;;4996649;28;20519;-77
2022/05/29 03:27:57;;;;;;;8.65;3.50;;;7.00;93.30;;;;;;5015458;28;20503;-77
2022/05/29 03:30:27;;;;;;;7.53;3.13;;;7.00;93.40;;;;;;4987172;28;20378;-76
2022/05/29 03:32:58;;;;;;;7.65;3.53;;;6.90;94.00;;;;;;5007743;28;20471;-76
2022/05/29 03:35:31;;;;;;;5.75;2.38;;;7.00;95.10;;;;;;5004439;28;20033;-76
2022/05/29 03:37:57;;;;;;;5.82;2.78;;;7.10;93.40;;;;;;5015667;28;20515;-76
2022/05/29 03:40:24;;;;;;;10.05;4.05;;;7.20;92.70;;;;;;4990953;28;20200;-76
2022/05/29 03:42:49;;;;;;;6.43;2.22;;;7.20;96.80;;;;;;4999844;28;20389;-76
2022/05/29 03:45:15;;;;;;;3.90;2.05;;;7.30;93.80;;;;;;5000236;28;20021;-76
2022/05/29 03:47:40;;;;;;;4.57;2.33;;;7.40;94.40;;;;;;5016084;28;20029;-76
2022/05/29 03:50:08;;;;;;;7.20;3.05;;;7.40;94.80;;;;;;4991124;28;20038;-76
2022/05/29 03:52:34;;;;;;;5.15;2.38;;;7.50;95.30;;;;;;4999993;28;20387;-77
2022/05/29 03:55:00;;;;;;;3.88;2.08;;;7.40;95.30;;;;;;5017208;28;20033;-77
2022/05/29 03:57:26;;;;;;;5.15;2.53;;;7.60;94.30;;;;;;5001639;28;20021;-77
2022/05/29 03:59:51;;;;;;;3.95;2.30;;;7.60;95.30;;;;;;4996068;28;20052;-76
2022/05/29 04:02:17;;;;;;;9.07;3.60;;;7.60;95.20;;;;;;5001166;28;20508;-76
2022/05/29 04:04:43;;;;;;;5.25;3.60;;;7.60;96.00;;;;;;4998999;28;20041;-77
2022/05/29 04:07:08;;;;;;;4.93;2.00;;;7.60;98.10;;;;;;5001005;28;20034;-77
2022/05/29 04:12:18;;;;;;;4.43;2.42;;;7.80;95.10;;;;;;5015287;28;20099;-76
2022/05/29 04:14:43;;;;;;;4.72;2.78;;;8.00;94.40;;;;;;5011227;28;20037;-76
2022/05/29 04:17:10;;;;;;;8.32;2.50;;;8.00;94.50;;;;;;4989826;28;20101;-76
2022/05/29 04:19:36;;;;;;;5.57;2.00;;;8.00;94.70;;;;;;5001803;28;20484;-76
2022/05/29 04:22:08;;;;;;;10.52;3.10;;;7.90;94.80;;;;;;4985385;28;20028;-77
2022/05/29 04:24:34;;;;;;;5.32;3.10;;;8.10;95.60;;;;;;5006143;28;20177;-77
2022/05/29 04:26:59;;;;;;;2.80;1.80;;;8.00;95.90;;;;;;4995798;28;20655;-77
2022/05/29 04:29:25;;;;;;;4.97;2.58;;;8.00;94.30;;;;;;4984306;28;20026;-76
2022/05/29 04:34:35;;;;;;;6.22;3.00;;;8.20;95.30;;;;;;5002765;28;20240;-77
2022/05/29 04:37:01;;;;;;;5.85;2.22;;;8.40;94.20;;;;;;4998388;28;20033;-77
2022/05/29 04:39:27;;;;;;;5.18;2.42;;;8.40;94.60;;;;;;5012937;28;20032;-77
2022/05/29 04:41:52;;;;;;;7.50;2.45;;;8.40;94.80;;;;;;5014429;28;20026;-77
2022/05/29 04:44:18;;;;;;;10.98;3.53;;;8.30;94.30;;;;;;4998024;28;20064;-77
2022/05/29 04:46:43;;;;;;;4.68;1.70;;;8.30;93.80;;;;;;5011622;28;20087;-77
2022/05/29 04:49:09;;;;;;;4.28;2.10;;;8.40;94.10;;;;;;4998495;28;20037;-77
2022/05/29 04:51:34;;;;;;;5.45;3.05;;;8.40;94.50;;;;;;4999374;28;21534;-77
2022/05/29 04:54:00;;;;;;;4.07;2.42;;;8.50;94.10;;;;;;4997369;28;20049;-77
2022/05/29 04:56:25;;;;;;;4.18;2.22;;;8.50;94.30;;;;;;5002109;28;20104;-77
2022/05/29 04:58:51;;;;;;;5.13;2.22;;;8.60;93.80;;;;;;4980496;28;20084;-77
2022/05/29 05:01:16;;;;;;;6.32;1.95;;;8.60;94.40;;;;;;5013996;28;20053;-76
2022/05/29 05:03:42;;;;;;;8.98;2.83;;;8.60;94.50;;;;;;4981653;28;20488;-76
2022/05/29 05:06:09;;;;;;;4.13;2.35;;;8.50;95.50;;;;;;5001620;28;20037;-76
2022/05/29 05:08:34;;;;;;;4.82;2.50;;;8.60;94.70;;;;;;4984013;28;20183;-77
2022/05/29 05:11:00;;;;;;;6.65;3.05;;;8.60;95.40;;;;;;4997342;28;20120;-76
2022/05/29 05:13:25;;;;;;;3.95;2.85;;;8.70;95.40;;;;;;4990169;28;20165;-76
2022/05/29 05:15:59;;;;;;;4.60;2.13;;;8.70;95.40;;;;;;5012292;28;20083;-77
2022/05/29 05:18:24;;;;;;;7.82;3.22;;;8.70;97.30;;;;;;4998415;28;20034;-76
2022/05/29 05:20:50;;;;;;;9.45;3.40;;;8.70;96.80;;;;;;5014379;28;20511;-76
2022/05/29 05:23:15;;;;;;;8.05;2.67;;;8.70;96.40;;;;;;4987290;28;20025;-75
2022/05/29 05:25:41;;;;;;;7.32;2.30;;;8.90;98.20;;;;;;4997037;28;20065;-77
2022/05/29 05:28:06;;;;;;;8.38;2.60;;;8.70;96.50;;;;;;5013091;28;20034;-76
2022/05/29 05:30:32;;;;;;;4.43;2.40;;;8.70;97.00;;;;;;4980337;28;20029;-76
2022/05/29 05:32:58;;;;;;;7.63;3.03;;;8.80;96.60;;;;;;4999131;28;20560;-77
2022/05/29 05:35:23;;;;;;;7.30;2.78;;;8.80;97.60;;;;;;5001122;28;20034;-77
2022/05/29 05:37:49;;;;;;;5.40;2.80;;;8.80;98.60;;;;;;5012965;28;20107;-75
2022/05/29 05:40:14;;;;;;;6.30;2.78;;;8.80;98.10;;;;;;4983072;28;20428;-75
2022/05/29 05:42:40;;;;;;;7.20;2.20;;;8.80;97.10;;;;;;4999782;28;20025;-76
2022/05/29 05:45:07;;;;;;;7.35;3.08;;;8.80;96.90;;;;;;4988065;28;20054;-76
2022/05/29 05:47:33;;;;;;;6.95;2.83;;;8.80;96.70;;;;;;4998630;28;20092;-77
2022/05/29 05:49:58;;;;;;;6.90;2.75;;;8.90;96.60;;;;;;4982053;28;20021;-75
2022/05/29 05:52:24;;;;;;;4.30;2.63;;;9.00;97.00;;;;;;4994897;28;20422;-76
2022/05/29 05:54:49;;;;;;;4.63;2.70;;;9.00;97.20;;;;;;4995778;28;20034;-75
2022/05/29 05:57:20;;;;;;;4.65;2.90;;;9.10;97.00;;;;;;4994699;28;20064;-75
2022/05/29 05:59:45;;;;;;;6.63;2.60;;;9.10;96.70;;;;;;4999415;28;20029;-75
2022/05/29 06:02:11;;;;;;;7.28;3.90;;;9.10;98.10;;;;;;4988288;28;20644;-75
2022/05/29 06:04:38;;;;;;;5.82;2.42;;;9.10;97.30;;;;;;5014345;28;20034;-75
2022/05/29 06:07:06;;;;;;;4.95;2.63;;;9.30;97.80;;;;;;4996062;28;20529;-78
2022/05/29 06:09:32;;;;;;;5.18;2.58;;;9.30;97.50;;;;;;4999728;28;20034;-75
2022/05/29 06:11:57;;;;;;;6.20;3.70;;;9.50;97.60;;;;;;4996244;28;20065;-76
2022/05/29 06:14:23;;;;;;;5.45;3.80;;;9.60;97.50;;;;;;4988077;28;20515;-76
2022/05/29 06:16:48;;;;;;;7.25;3.42;;;9.60;97.20;;;;;;4993507;28;20109;-75
2022/05/29 06:19:14;;;;;;;7.00;4.85;;;9.80;98.60;;;;;;4998915;28;20372;-76
2022/05/29 06:21:39;;;;;;;5.65;2.97;;;9.90;99.00;;;;;;4996137;28;20057;-76
2022/05/29 06:24:05;;;;;;;7.07;3.50;;;10.00;98.10;;;;;;4998449;28;20108;-76
2022/05/29 06:26:31;;;;;;;5.05;3.20;;;10.10;97.70;;;;;;4999243;28;20041;-76
2022/05/29 06:28:56;;;;;;;7.00;2.92;;;10.20;97.40;;;;;;4999116;28;20034;-76
2022/05/29 06:31:22;;;;;;;11.40;5.40;;;10.30;96.90;;;;;;4998056;28;20061;-75
2022/05/29 06:33:48;;;;;;;8.95;5.07;;;10.40;97.00;;;;;;5015289;28;20132;-76
2022/05/29 06:36:23;;;;;;;7.53;3.63;;;10.50;97.50;;;;;;5001772;28;20095;-76
2022/05/29 06:38:48;;;;;;;6.10;3.40;;;10.60;97.30;;;;;;5007885;28;20426;-76
2022/05/29 06:41:15;;;;;;;8.38;4.95;;;10.80;96.40;;;;;;4999886;28;20249;-76
2022/05/29 06:43:41;;;;;;;12.60;5.97;;;10.90;97.20;;;;;;5012161;28;20159;-76
2022/05/29 06:46:07;;;;;;;7.72;5.38;;;11.10;98.80;;;;;;5000096;28;20117;-76
2022/05/29 06:48:33;;;;;;;8.65;5.53;;;11.30;97.40;;;;;;5009953;28;20037;-76
2022/05/29 06:51:09;;;;;;;11.00;6.45;;;11.50;97.70;;;;;;4995040;28;20029;-76
2022/05/29 06:53:34;;;;;;;18.42;11.15;;;11.80;98.50;;;;;;5013840;28;20078;-76
2022/05/29 06:56:00;;;;;;;13.95;8.32;;;12.00;98.70;;;;;;5014179;28;20394;-77
2022/05/29 06:58:26;;;;;;;14.05;7.55;;;12.50;99.90;;;;;;4980621;28;20456;-76
2022/05/29 07:09:04;;;;;;;17.42;11.25;;;13.70;99.90;;;;;;5001361;28;20087;-77
2022/05/29 07:11:31;;;;;;;24.15;12.32;;;14.00;99.90;;;;;;5001111;28;20081;-77
2022/05/29 07:13:57;;;;;;;11.27;7.90;;;14.10;99.90;;;;;;4984851;28;20053;-77
2022/05/29 07:16:22;;;;;;;14.98;11.05;;;13.90;99.90;;;;;;5002253;28;20033;-77
2022/05/29 07:18:50;;;;;;;14.98;9.77;;;14.30;99.90;;;;;;4999951;28;20053;-77
2022/05/29 07:21:16;;;;;;;20.90;13.63;;;14.10;99.90;;;;;;5015753;28;20754;-77
2022/05/29 07:23:42;;;;;;;12.57;9.55;;;14.50;99.90;;;;;;4984393;28;20488;-77
2022/05/29 07:26:07;;;;;;;21.92;12.18;;;14.40;99.90;;;;;;5000772;28;20038;-77
2022/05/29 07:28:33;;;;;;;24.40;14.07;;;14.40;99.90;;;;;;5013495;28;20044;-76
2022/05/29 07:30:59;;;;;;;22.25;14.63;;;14.50;99.90;;;;;;5004654;28;20044;-77
2022/05/29 07:33:25;;;;;;;25.85;16.23;;;14.60;99.90;;;;;;5014872;28;20040;-77
2022/05/29 07:35:51;;;;;;;25.35;12.25;;;14.50;99.90;;;;;;5001247;28;20092;-77
2022/05/29 07:38:17;;;;;;;23.25;15.27;;;14.40;99.90;;;;;;4983905;28;20033;-77
2022/05/29 07:40:42;;;;;;;20.48;13.82;;;14.20;99.90;;;;;;4990864;28;20030;-77
2022/05/29 07:43:21;;;;;;;16.80;14.13;;;14.10;99.90;;;;;;4990060;28;20109;-77
2022/05/29 07:45:48;;;;;;;24.35;14.55;;;14.20;99.90;;;;;;5002379;28;20034;-77
2022/05/29 07:48:15;;;;;;;18.67;11.45;;;14.40;99.90;;;;;;4984269;28;20029;-77
2022/05/29 07:50:41;;;;;;;11.50;9.57;;;14.40;99.90;;;;;;5001170;28;20104;-77
2022/05/29 07:53:06;;;;;;;18.10;10.40;;;14.40;99.90;;;;;;5014193;28;20168;-77
2022/05/29 07:55:32;;;;;;;12.90;9.18;;;14.50;99.90;;;;;;5014007;28;20535;-77
2022/05/29 07:57:58;;;;;;;17.02;9.88;;;14.70;99.90;;;;;;5005695;28;20026;-77
2022/05/29 08:00:23;;;;;;;16.73;10.98;;;14.70;99.90;;;;;;5000675;28;20033;-77
2022/05/29 08:02:49;;;;;;;21.92;14.02;;;14.90;99.90;;;;;;5002260;28;20433;-76
2022/05/29 08:05:16;;;;;;;23.23;14.27;;;15.10;99.90;;;;;;5002441;28;20457;-77
2022/05/29 08:07:42;;;;;;;22.27;13.88;;;15.20;99.90;;;;;;4995548;28;20034;-77
2022/05/29 08:10:08;;;;;;;15.55;10.18;;;15.40;99.90;;;;;;5017176;28;20413;-77
2022/05/29 08:12:34;;;;;;;12.60;8.18;;;15.50;99.90;;;;;;4997923;28;20034;-77
2022/05/29 08:15:00;;;;;;;14.68;8.93;;;15.50;99.90;;;;;;5013777;28;20111;-77
2022/05/29 08:17:25;;;;;;;11.35;7.18;;;15.50;99.90;;;;;;5015473;28;20037;-77
2022/05/29 08:19:51;;;;;;;15.85;7.43;;;15.60;99.90;;;;;;4999166;28;20030;-77
2022/05/29 08:22:16;;;;;;;11.90;7.03;;;15.50;99.30;;;;;;5004849;28;20045;-77
2022/05/29 08:32:56;;;;;;;9.68;5.95;;;15.50;99.90;;;;;;5013062;28;20053;-77
2022/05/29 08:35:22;;;;;;;6.88;5.22;;;15.40;99.50;;;;;;5016150;28;20045;-77
2022/05/29 08:37:47;;;;;;;8.95;5.03;;;15.70;98.80;;;;;;5015075;28;20484;-77
2022/05/29 08:40:13;;;;;;;7.60;5.03;;;15.80;98.90;;;;;;4984064;28;20049;-77
2022/05/29 08:42:39;;;;;;;8.07;5.90;;;16.10;99.90;;;;;;4986363;28;20475;-77
2022/05/29 08:45:05;;;;;;;10.50;5.60;;;16.40;99.70;;;;;;5016158;28;20034;-77
2022/05/29 08:47:31;;;;;;;5.65;4.05;;;17.10;99.90;;;;;;4998560;28;20703;-77
2022/05/29 08:49:57;;;;;;;6.63;5.20;;;17.60;98.30;;;;;;5015253;28;20507;-76
2022/05/29 08:52:25;;;;;;;8.48;5.60;;;17.90;99.40;;;;;;5015966;28;20030;-77
2022/05/29 08:55:12;;;;;;;8.68;5.80;;;18.00;95.80;;;;;;5017764;28;20037;-77
2022/05/29 08:58:08;;;;;;;14.55;7.47;;;18.20;98.70;;;;;;5014004;28;20124;-77
2022/05/29 09:01:00;;;;;;;8.05;5.53;;;18.40;98.70;;;;;;5014433;28;20038;-77
2022/05/29 09:03:58;;;;;;;10.25;5.80;;;18.50;97.60;;;;;;4998464;28;20048;-77
2022/05/29 09:06:30;;;;;;;7.05;6.30;;;18.40;97.00;;;;;;5011245;28;20032;-77
2022/05/29 09:09:06;;;;;;;7.15;5.38;;;18.50;96.80;;;;;;5020615;28;20437;-77
2022/05/29 09:11:47;;;;;;;7.38;6.10;;;18.50;96.60;;;;;;5013790;28;20038;-76
2022/05/29 09:14:30;;;;;;;10.25;6.97;;;18.30;96.50;;;;;;4987036;28;20137;-78
2022/05/29 09:17:02;;;;;;;23.05;7.75;;;17.90;96.90;;;;;;5015994;28;20500;-78
2022/05/29 09:19:47;;;;;;;10.15;5.80;;;17.30;98.80;;;;;;5003697;28;20034;-78
2022/05/29 09:22:19;;;;;;;35.63;6.75;;;16.60;98.80;;;;;;5014182;28;20053;-78
2022/05/29 09:24:52;;;;;;;11.15;6.40;;;16.00;99.30;;;;;;5000248;28;20475;-77
2022/05/29 09:27:18;;;;;;;11.30;6.72;;;15.30;99.90;;;;;;5020732;28;20041;-77
2022/05/29 09:29:44;;;;;;;10.02;6.97;;;15.30;99.90;;;;;;5012998;28;20505;-78
2022/05/29 09:32:14;;;;;;;14.70;5.88;;;15.50;99.90;;;;;;5000635;28;20036;-77
2022/05/29 09:34:41;;;;;;;10.10;6.35;;;15.80;99.90;;;;;;4996389;28;20045;-77
2022/05/29 09:37:32;;;;;;;7.93;5.03;;;16.00;99.90;;;;;;5020356;28;20469;-78
2022/05/29 09:39:57;;;;;;;7.97;3.53;;;16.20;99.90;;;;;;5006104;28;20547;-78
2022/05/29 09:42:37;;;;;;;8.88;3.38;;;16.50;99.90;;;;;;5003601;28;20030;-78
2022/05/29 09:45:22;;;;;;;9.48;3.13;;;16.80;99.90;;;;;;4986147;28;20034;-77
2022/05/29 09:50:56;;;;;;;6.93;3.08;;;17.10;99.90;;;;;;5014347;28;20052;-78
2022/05/29 09:53:44;;;;;;;5.03;2.85;;;17.40;99.90;;;;;;4987724;28;20046;-78
2022/05/29 09:56:09;;;;;;;5.80;2.33;;;17.60;99.90;;;;;;5014882;28;20025;-78
2022/05/29 09:58:47;;;;;;;4.97;2.00;;;18.00;99.90;;;;;;4984622;28;20083;-78
2022/05/29 10:01:34;;;;;;;5.55;2.33;;;18.20;99.90;;;;;;5014694;28;20512;-78
2022/05/29 10:04:10;;;;;;;5.50;2.55;;;18.40;99.90;;;;;;5005860;28;20480;-78
2022/05/29 10:06:42;;;;;;;5.68;2.63;;;18.60;99.90;;;;;;5018735;28;20056;-78
2022/05/29 10:09:11;;;;;;;7.72;2.38;;;18.50;99.90;;;;;;5002375;28;20041;-78
2022/05/29 10:11:37;;;;;;;3.70;1.90;;;18.60;99.90;;;;;;4997418;28;20040;-78
2022/05/29 10:14:24;;;;;;;6.05;1.92;;;18.80;99.90;;;;;;5000668;28;20121;-78
2022/05/29 10:16:50;;;;;;;5.68;2.58;;;19.10;99.90;;;;;;5014570;28;20113;-79
2022/05/29 10:19:54;;;;;;;8.68;2.08;;;19.30;99.90;;;;;;4989311;28;20504;-78
2022/05/29 10:22:38;;;;;;;5.93;1.38;;;19.40;99.90;;;;;;4965643;28;20041;-79
2022/05/29 10:25:19;;;;;;;5.07;1.80;;;20.00;99.90;;;;;;4980511;28;20038;-78
2022/05/29 10:27:49;;;;;;;5.22;1.75;;;20.50;99.90;;;;;;5002090;28;20044;-78
2022/05/29 10:30:27;;;;;;;3.88;1.45;;;20.70;99.90;;;;;;4987634;28;20033;-78
2022/05/29 10:32:59;;;;;;;3.35;1.20;;;21.00;99.90;;;;;;5013420;28;20050;-78
2022/05/29 10:35:32;;;;;;;1.65;1.00;;;21.20;99.90;;;;;;4996933;28;20669;-78
2022/05/29 10:38:11;;;;;;;3.40;1.30;;;21.60;99.90;;;;;;5001134;28;20038;-78
2022/05/29 10:40:37;;;;;;;1.60;0.82;;;21.70;99.90;;;;;;4999031;28;20073;-78
2022/05/29 10:43:03;;;;;;;2.10;0.60;;;22.10;99.90;;;;;;5015366;28;20561;-78
2022/05/29 10:45:43;;;;;;;3.10;0.90;;;22.30;99.90;;;;;;4987727;28;20401;-78
2022/05/29 10:48:15;;;;;;;3.83;1.52;;;22.50;99.90;;;;;;5002498;28;20061;-78
2022/05/29 10:51:08;;;;;;;2.70;0.80;;;22.50;99.20;;;;;;4996717;28;20029;-78
2022/05/29 10:53:56;;;;;;;1.52;0.85;;;22.80;99.60;;;;;;5013231;28;20117;-78
2022/05/29 10:56:37;;;;;;;2.90;1.00;;;22.80;96.60;;;;;;5008932;28;20123;-78
2022/05/29 10:59:17;;;;;;;2.35;1.20;;;22.70;98.40;;;;;;4995760;28;20385;-78
2022/05/29 11:05:13;;;;;;;2.33;1.00;;;22.20;98.60;;;;;;5002156;28;20124;-78
2022/05/29 11:07:51;;;;;;;3.05;1.00;;;22.10;98.80;;;;;;5014334;28;20117;-78
2022/05/29 11:10:44;;;;;;;8.43;1.65;;;21.90;97.80;;;;;;5012673;28;20223;-78
2022/05/29 11:13:16;;;;;;;3.85;1.20;;;22.10;97.90;;;;;;5015912;28;20021;-78
2022/05/29 11:16:01;;;;;;;3.78;1.13;;;22.40;96.80;;;;;;5016477;28;20031;-79
2022/05/29 11:18:43;;;;;;;4.13;1.50;;;22.80;97.80;;;;;;5014062;28;20038;-79
2022/05/29 11:21:32;;;;;;;3.30;1.08;;;23.20;96.30;;;;;;5013804;28;20076;-79
2022/05/29 11:24:22;;;;;;;3.53;1.13;;;23.50;95.60;;;;;;5002057;28;20616;-79
2022/05/29 11:27:22;;;;;;;3.40;1.20;;;23.80;93.60;;;;;;5005367;28;20030;-79
2022/05/29 11:30:02;;;;;;;4.43;1.17;;;24.40;93.90;;;;;;5004543;28;20056;-80
2022/05/29 11:32:28;;;;;;;4.43;1.17;;;24.90;93.90;;;;;;5002338;28;20030;-80
2022/05/29 11:35:17;;;;;;;3.53;1.05;;;25.30;93.00;;;;;;5013357;28;20045;-80
2022/05/29 11:38:11;;;;;;;1.70;1.23;;;25.30;91.50;;;;;;5019238;28;20038;-80
2022/05/29 11:40:39;;;;;;;2.92;1.48;;;24.90;90.00;;;;;;5003276;28;20046;-80
2022/05/29 11:43:24;;;;;;;3.45;1.35;;;24.70;90.30;;;;;;5000122;28;20021;-80
2022/05/29 11:51:42;;;;;;;2.30;1.73;;;24.00;90.00;;;;;;5018011;28;20041;-83
2022/05/29 11:54:23;;;;;;;4.05;1.50;;;24.00;89.60;;;;;;5000355;28;20072;-81
2022/05/29 11:57:12;;;;;;;3.22;0.80;;;24.20;90.00;;;;;;4999553;28;22126;-81
2022/05/29 11:59:55;;;;;;;3.67;0.90;;;23.60;78.30;;;;;;5012099;28;20299;-81
2022/05/29 12:02:45;;;;;;;2.85;0.70;;;22.90;81.20;;;;;;5002693;28;20029;-81
2022/05/29 12:05:16;;;;;;;0.93;0.60;;;21.90;83.60;;;;;;5005820;28;20037;-81
2022/05/29 12:07:54;;;;;;;1.50;0.60;;;21.30;84.10;;;;;;5003843;28;20040;-81
2022/05/29 12:10:24;;;;;;;3.20;0.70;;;20.90;82.60;;;;;;5008401;28;20051;-81
2022/05/29 12:13:11;;;;;;;1.63;0.75;;;20.40;83.60;;;;;;5018230;28;20037;-80
2022/05/29 12:15:36;;;;;;;2.58;0.70;;;20.10;85.90;;;;;;5008821;28;20037;-81
2022/05/29 12:18:02;;;;;;;3.25;0.70;;;19.90;87.20;;;;;;5000919;28;20040;-81
2022/05/29 12:20:53;;;;;;;2.88;0.93;;;19.80;87.30;;;;;;5017993;28;20026;-81
2022/05/29 12:23:25;;;;;;;1.70;0.70;;;19.60;88.60;;;;;;4989386;28;20025;-80
2022/05/29 12:26:06;;;;;;;4.18;1.05;;;19.60;90.30;;;;;;5015834;28;20041;-79
2022/05/29 12:28:37;;;;;;;2.95;0.50;;;19.40;91.00;;;;;;4992070;28;20034;-80
2022/05/29 12:31:04;;;;;;;2.22;0.90;;;19.30;91.40;;;;;;5020064;28;20025;-80
2022/05/29 12:33:30;;;;;;;1.83;0.77;;;19.10;92.40;;;;;;5020763;28;20112;-80
2022/05/29 12:36:48;;;;;;;2.17;0.68;;;19.10;93.50;;;;;;5017771;28;20033;-80
2022/05/29 12:39:23;;;;;;;1.23;0.80;;;19.10;94.80;;;;;;4978325;28;20032;-80
2022/05/29 12:41:55;;;;;;;1.20;0.85;;;19.20;95.50;;;;;;5005721;28;20040;-80
2022/05/29 12:44:37;;;;;;;6.28;1.55;;;19.30;96.60;;;;;;5017845;28;20076;-78
2022/05/29 12:47:18;;;;;;;2.25;0.80;;;19.40;96.20;;;;;;5001798;28;20500;-79
2022/05/29 12:50:15;;;;;;;2.58;0.93;;;19.50;97.10;;;;;;5015634;28;20030;-79
2022/05/29 12:52:46;;;;;;;2.72;1.20;;;19.60;97.00;;;;;;5006175;28;20046;-78
2022/05/29 12:55:29;;;;;;;4.25;1.10;;;19.90;97.20;;;;;;5017544;28;20392;-80
2022/05/29 12:58:04;;;;;;;3.53;0.90;;;20.10;97.30;;;;;;5005803;28;20537;-80
2022/05/29 13:01:08;;;;;;;4.38;1.27;;;20.40;97.10;;;;;;5016203;28;20064;-80
2022/05/29 13:03:37;;;;;;;3.67;1.10;;;20.60;96.90;;;;;;5017520;28;20049;-81
2022/05/29 13:06:40;;;;;;;1.67;0.98;;;20.90;96.50;;;;;;5020033;28;20025;-80
2022/05/29 13:09:24;;;;;;;6.35;1.30;;;21.00;97.20;;;;;;5031914;28;20041;-80
2022/05/29 13:11:58;;;;;;;3.83;1.20;;;21.20;97.00;;;;;;5015421;28;20041;-79
2022/05/29 13:14:25;;;;;;;5.35;1.30;;;21.50;98.10;;;;;;4992434;28;20587;-81
2022/05/29 13:17:08;;;;;;;3.25;1.20;;;21.80;96.70;;;;;;5018792;28;20389;-81
2022/05/29 13:20:12;;;;;;;3.47;1.40;;;22.10;95.20;;;;;;5002020;28;20057;-81
2022/05/29 13:22:49;;;;;;;2.72;1.15;;;22.50;95.40;;;;;;5017662;28;20395;-81
2022/05/29 13:25:16;;;;;;;5.53;1.73;;;22.80;95.80;;;;;;4982329;28;20022;-81
2022/05/29 13:27:42;;;;;;;3.50;1.20;;;23.00;95.80;;;;;;4995371;28;20033;-81
2022/05/29 13:30:09;;;;;;;4.38;1.20;;;23.00;94.60;;;;;;5009970;28;20026;-81
2022/05/29 13:32:34;;;;;;;3.50;1.10;;;23.30;94.50;;;;;;4987859;28;20448;-84
2022/05/29 13:35:03;;;;;;;4.50;1.10;;;23.30;93.60;;;;;;4989630;28;20074;-83
2022/05/29 13:37:32;;;;;;;5.03;1.23;;;23.40;93.20;;;;;;5018001;28;20034;-81
2022/05/29 13:40:16;;;;;;;1.48;0.82;;;23.50;92.80;;;;;;5014731;28;20113;-82
2022/05/29 13:42:49;;;;;;;5.28;1.17;;;23.90;93.40;;;;;;5015502;28;20579;-82
2022/05/29 13:45:24;;;;;;;5.68;1.35;;;23.90;91.80;;;;;;4991622;28;20044;-82
2022/05/29 13:48:04;;;;;;;3.30;0.82;;;24.10;92.50;;;;;;5017209;28;20030;-81
2022/05/29 13:50:40;;;;;;;5.63;1.17;;;24.00;91.20;;;;;;5017971;28;20126;-82
2022/05/29 13:53:09;;;;;;;4.90;1.17;;;24.20;91.30;;;;;;5002796;28;20489;-81
2022/05/29 13:55:35;;;;;;;5.82;1.40;;;24.20;89.10;;;;;;5017192;28;20041;-81